sensor_id;sensor_type;location;lat;lon;timestamp;P1;durP1;ratioP1;P2;durP2;ratioP2
33954;SDS011;20233;50.804;7.126;2023-04-01T00:00:17;0.52;;;0.00;;
33954;SDS011;20233;50.804;7.126;2023-04-01T00:02:43;0.73;;;0.00;;
33954;SDS011;20233;50.804;7.126;2023-04-01T00:05:09;1.42;;;0.00;;
33954;SDS011;20233;50.804;7.126;2023-04-01T00:07:35;0.32;;;0.00;;
33954;SDS011;20233;50.804;7.126;2023-04-01T00:10:02;1.42;;;0.38;;
33954;SDS011;20233;50.804;7.126;2023-04-01T00:12:29;0.20;;;0.00;;
33954;SDS011;20233;50.804;7.126;2023-04-01T00:14:55;0.60;;;0.00;;
33954;SDS011;20233;50.804;7.126;2023-04-01T00:17:20;1.70;;;0.00;;
33954;SDS011;20233;50.804;7.126;2023-04-01T00:19:46;0.60;;;0.00;;
33954;SDS011;20233;50.804;7.126;2023-04-01T00:22:12;0.50;;;0.00;;
33954;SDS011;20233;50.804;7.126;2023-04-01T00:24:38;0.57;;;0.00;;
33954;SDS011;20233;50.804;7.126;2023-04-01T00:27:03;0.68;;;0.00;;
33954;SDS011;20233;50.804;7.126;2023-04-01T00:29:29;1.60;;;0.00;;
33954;SDS011;20233;50.804;7.126;2023-04-01T00:31:56;1.08;;;0.00;;
33954;SDS011;20233;50.804;7.126;2023-04-01T00:34:22;0.68;;;0.00;;
33954;SDS011;20233;50.804;7.126;2023-04-01T00:36:49;1.45;;;0.00;;
33954;SDS011;20233;50.804;7.126;2023-04-01T00:39:18;0.88;;;0.10;;
33954;SDS011;20233;50.804;7.126;2023-04-01T00:41:46;0.50;;;0.00;;
33954;SDS011;20233;50.804;7.126;2023-04-01T00:44:20;1.08;;;0.00;;
33954;SDS011;20233;50.804;7.126;2023-04-01T00:46:48;0.40;;;0.00;;
33954;SDS011;20233;50.804;7.126;2023-04-01T00:49:15;0.35;;;0.00;;
33954;SDS011;20233;50.804;7.126;2023-04-01T00:51:45;1.55;;;0.00;;
33954;SDS011;20233;50.804;7.126;2023-04-01T00:54:13;0.75;;;0.00;;
33954;SDS011;20233;50.804;7.126;2023-04-01T00:56:48;0.63;;;0.00;;
33954;SDS011;20233;50.804;7.126;2023-04-01T00:59:46;0.55;;;0.00;;
33954;SDS011;20233;50.804;7.126;2023-04-01T01:02:15;0.77;;;0.00;;
33954;SDS011;20233;50.804;7.126;2023-04-01T01:04:42;0.60;;;0.00;;
33954;SDS011;20233;50.804;7.126;2023-04-01T01:10:07;1.58;;;0.00;;
33954;SDS011;20233;50.804;7.126;2023-04-01T01:12:39;0.45;;;0.00;;
33954;SDS011;20233;50.804;7.126;2023-04-01T01:29:04;1.08;;;0.00;;
33954;SDS011;20233;50.804;7.126;2023-04-01T01:37:12;1.58;;;0.17;;
33954;SDS011;20233;50.804;7.126;2023-04-01T01:39:40;0.50;;;0.00;;
33954;SDS011;20233;50.804;7.126;2023-04-01T01:42:11;3.60;;;0.32;;
33954;SDS011;20233;50.804;7.126;2023-04-01T01:44:40;0.10;;;0.00;;
33954;SDS011;20233;50.804;7.126;2023-04-01T01:47:09;1.65;;;0.00;;
33954;SDS011;20233;50.804;7.126;2023-04-01T01:49:36;1.92;;;0.00;;
33954;SDS011;20233;50.804;7.126;2023-04-01T01:52:03;1.80;;;0.00;;
33954;SDS011;20233;50.804;7.126;2023-04-01T01:54:29;0.80;;;0.00;;
33954;SDS011;20233;50.804;7.126;2023-04-01T01:57:08;0.65;;;0.00;;
33954;SDS011;20233;50.804;7.126;2023-04-01T01:59:35;0.45;;;0.00;;
33954;SDS011;20233;50.804;7.126;2023-04-01T02:02:03;2.08;;;0.00;;
33954;SDS011;20233;50.804;7.126;2023-04-01T02:04:36;0.17;;;0.00;;
33954;SDS011;20233;50.804;7.126;2023-04-01T02:07:05;0.40;;;0.00;;
33954;SDS011;20233;50.804;7.126;2023-04-01T02:09:36;0.40;;;0.00;;
33954;SDS011;20233;50.804;7.126;2023-04-01T02:12:06;0.25;;;0.00;;
33954;SDS011;20233;50.804;7.126;2023-04-01T02:14:39;0.30;;;0.00;;
33954;SDS011;20233;50.804;7.126;2023-04-01T02:17:11;0.45;;;0.00;;
33954;SDS011;20233;50.804;7.126;2023-04-01T02:19:47;0.68;;;0.00;;
33954;SDS011;20233;50.804;7.126;2023-04-01T02:22:29;0.52;;;0.00;;
33954;SDS011;20233;50.804;7.126;2023-04-01T02:25:00;2.17;;;0.00;;
33954;SDS011;20233;50.804;7.126;2023-04-01T02:27:31;0.88;;;0.00;;
33954;SDS011;20233;50.804;7.126;2023-04-01T02:29:57;0.73;;;0.00;;
33954;SDS011;20233;50.804;7.126;2023-04-01T02:32:23;0.63;;;0.00;;
33954;SDS011;20233;50.804;7.126;2023-04-01T02:34:53;0.77;;;0.63;;
33954;SDS011;20233;50.804;7.126;2023-04-01T02:37:19;0.22;;;0.00;;
33954;SDS011;20233;50.804;7.126;2023-04-01T02:39:45;1.65;;;0.00;;
33954;SDS011;20233;50.804;7.126;2023-04-01T02:42:10;0.00;;;0.00;;
33954;SDS011;20233;50.804;7.126;2023-04-01T02:44:36;0.00;;;0.00;;
33954;SDS011;20233;50.804;7.126;2023-04-01T02:47:02;0.98;;;0.00;;
33954;SDS011;20233;50.804;7.126;2023-04-01T02:49:28;0.13;;;0.00;;
33954;SDS011;20233;50.804;7.126;2023-04-01T02:51:53;0.40;;;0.00;;
33954;SDS011;20233;50.804;7.126;2023-04-01T02:54:19;0.10;;;0.00;;
33954;SDS011;20233;50.804;7.126;2023-04-01T02:56:44;1.20;;;0.00;;
33954;SDS011;20233;50.804;7.126;2023-04-01T02:59:10;0.70;;;0.10;;
33954;SDS011;20233;50.804;7.126;2023-04-01T03:01:36;2.83;;;0.00;;
33954;SDS011;20233;50.804;7.126;2023-04-01T03:04:02;0.22;;;0.00;;
33954;SDS011;20233;50.804;7.126;2023-04-01T03:06:28;0.52;;;0.00;;
33954;SDS011;20233;50.804;7.126;2023-04-01T03:08:53;0.50;;;0.00;;
33954;SDS011;20233;50.804;7.126;2023-04-01T03:11:19;0.15;;;0.00;;
33954;SDS011;20233;50.804;7.126;2023-04-01T03:13:46;1.10;;;0.00;;
33954;SDS011;20233;50.804;7.126;2023-04-01T03:16:11;0.85;;;0.00;;
33954;SDS011;20233;50.804;7.126;2023-04-01T03:18:37;0.25;;;0.00;;
33954;SDS011;20233;50.804;7.126;2023-04-01T03:21:12;0.20;;;0.00;;
33954;SDS011;20233;50.804;7.126;2023-04-01T03:23:39;0.65;;;0.00;;
33954;SDS011;20233;50.804;7.126;2023-04-01T03:26:05;2.25;;;0.10;;
33954;SDS011;20233;50.804;7.126;2023-04-01T03:28:30;0.35;;;0.00;;
33954;SDS011;20233;50.804;7.126;2023-04-01T03:30:56;2.05;;;0.00;;
33954;SDS011;20233;50.804;7.126;2023-04-01T03:33:21;1.45;;;0.00;;
33954;SDS011;20233;50.804;7.126;2023-04-01T03:35:47;0.20;;;0.00;;
33954;SDS011;20233;50.804;7.126;2023-04-01T03:38:12;0.28;;;0.00;;
33954;SDS011;20233;50.804;7.126;2023-04-01T03:40:41;1.80;;;0.00;;
33954;SDS011;20233;50.804;7.126;2023-04-01T03:43:07;0.40;;;0.00;;
33954;SDS011;20233;50.804;7.126;2023-04-01T03:45:34;0.80;;;0.00;;
33954;SDS011;20233;50.804;7.126;2023-04-01T03:48:00;0.05;;;0.00;;
33954;SDS011;20233;50.804;7.126;2023-04-01T03:50:26;0.35;;;0.00;;
33954;SDS011;20233;50.804;7.126;2023-04-01T03:52:51;0.93;;;0.00;;
33954;SDS011;20233;50.804;7.126;2023-04-01T03:55:17;0.43;;;0.00;;
33954;SDS011;20233;50.804;7.126;2023-04-01T03:57:43;0.43;;;0.00;;
33954;SDS011;20233;50.804;7.126;2023-04-01T04:00:09;0.00;;;0.00;;
33954;SDS011;20233;50.804;7.126;2023-04-01T04:02:34;0.10;;;0.00;;
33954;SDS011;20233;50.804;7.126;2023-04-01T04:05:00;0.55;;;0.30;;
33954;SDS011;20233;50.804;7.126;2023-04-01T04:07:26;0.63;;;0.00;;
33954;SDS011;20233;50.804;7.126;2023-04-01T04:09:51;0.13;;;0.00;;
33954;SDS011;20233;50.804;7.126;2023-04-01T04:12:17;0.00;;;0.00;;
33954;SDS011;20233;50.804;7.126;2023-04-01T04:14:42;0.00;;;0.00;;
33954;SDS011;20233;50.804;7.126;2023-04-01T04:17:10;0.17;;;0.00;;
33954;SDS011;20233;50.804;7.126;2023-04-01T04:19:41;1.25;;;0.00;;
33954;SDS011;20233;50.804;7.126;2023-04-01T04:22:06;0.25;;;0.00;;
33954;SDS011;20233;50.804;7.126;2023-04-01T04:24:36;0.30;;;0.00;;
33954;SDS011;20233;50.804;7.126;2023-04-01T04:27:02;0.00;;;0.00;;
33954;SDS011;20233;50.804;7.126;2023-04-01T04:29:28;1.02;;;0.15;;
33954;SDS011;20233;50.804;7.126;2023-04-01T04:31:54;0.00;;;0.00;;
33954;SDS011;20233;50.804;7.126;2023-04-01T04:34:20;0.00;;;0.00;;
33954;SDS011;20233;50.804;7.126;2023-04-01T04:36:47;0.05;;;0.00;;
33954;SDS011;20233;50.804;7.126;2023-04-01T04:39:13;0.50;;;0.00;;
33954;SDS011;20233;50.804;7.126;2023-04-01T04:41:39;0.10;;;0.00;;
33954;SDS011;20233;50.804;7.126;2023-04-01T04:44:05;0.10;;;0.00;;
33954;SDS011;20233;50.804;7.126;2023-04-01T04:46:31;0.10;;;0.00;;
33954;SDS011;20233;50.804;7.126;2023-04-01T04:48:56;0.00;;;0.00;;
33954;SDS011;20233;50.804;7.126;2023-04-01T04:51:22;0.20;;;0.00;;
33954;SDS011;20233;50.804;7.126;2023-04-01T04:53:49;0.00;;;0.00;;
33954;SDS011;20233;50.804;7.126;2023-04-01T04:56:18;1.10;;;0.00;;
33954;SDS011;20233;50.804;7.126;2023-04-01T04:58:45;0.10;;;0.00;;
33954;SDS011;20233;50.804;7.126;2023-04-01T05:01:12;0.70;;;0.00;;
33954;SDS011;20233;50.804;7.126;2023-04-01T05:03:39;0.10;;;0.00;;
33954;SDS011;20233;50.804;7.126;2023-04-01T05:06:06;0.20;;;0.00;;
33954;SDS011;20233;50.804;7.126;2023-04-01T05:08:32;0.63;;;0.00;;
33954;SDS011;20233;50.804;7.126;2023-04-01T05:10:59;0.17;;;0.00;;
33954;SDS011;20233;50.804;7.126;2023-04-01T05:13:25;0.30;;;0.00;;
33954;SDS011;20233;50.804;7.126;2023-04-01T05:15:51;0.08;;;0.00;;
33954;SDS011;20233;50.804;7.126;2023-04-01T05:18:16;0.55;;;0.00;;
33954;SDS011;20233;50.804;7.126;2023-04-01T05:20:46;0.05;;;0.00;;
33954;SDS011;20233;50.804;7.126;2023-04-01T05:23:12;0.05;;;0.00;;
33954;SDS011;20233;50.804;7.126;2023-04-01T05:25:38;0.20;;;0.00;;
33954;SDS011;20233;50.804;7.126;2023-04-01T05:28:03;0.90;;;0.00;;
33954;SDS011;20233;50.804;7.126;2023-04-01T05:30:29;0.00;;;0.00;;
33954;SDS011;20233;50.804;7.126;2023-04-01T05:32:54;0.20;;;0.00;;
33954;SDS011;20233;50.804;7.126;2023-04-01T05:35:20;0.43;;;0.00;;
33954;SDS011;20233;50.804;7.126;2023-04-01T05:37:45;0.20;;;0.00;;
33954;SDS011;20233;50.804;7.126;2023-04-01T05:40:11;0.20;;;0.00;;
33954;SDS011;20233;50.804;7.126;2023-04-01T05:42:38;0.30;;;0.00;;
33954;SDS011;20233;50.804;7.126;2023-04-01T05:45:04;0.15;;;0.10;;
33954;SDS011;20233;50.804;7.126;2023-04-01T05:47:30;0.52;;;0.00;;
33954;SDS011;20233;50.804;7.126;2023-04-01T05:49:56;0.10;;;0.00;;
33954;SDS011;20233;50.804;7.126;2023-04-01T05:52:21;0.10;;;0.00;;
33954;SDS011;20233;50.804;7.126;2023-04-01T05:54:47;0.60;;;0.00;;
33954;SDS011;20233;50.804;7.126;2023-04-01T05:57:12;1.10;;;0.00;;
33954;SDS011;20233;50.804;7.126;2023-04-01T05:59:39;0.20;;;0.00;;
33954;SDS011;20233;50.804;7.126;2023-04-01T06:02:05;1.70;;;0.00;;
33954;SDS011;20233;50.804;7.126;2023-04-01T06:04:32;0.85;;;0.00;;
33954;SDS011;20233;50.804;7.126;2023-04-01T06:07:05;0.47;;;0.00;;
33954;SDS011;20233;50.804;7.126;2023-04-01T06:09:41;0.10;;;0.00;;
33954;SDS011;20233;50.804;7.126;2023-04-01T06:22:54;0.30;;;0.00;;
33954;SDS011;20233;50.804;7.126;2023-04-01T06:31:10;0.70;;;0.00;;
33954;SDS011;20233;50.804;7.126;2023-04-01T06:39:32;1.00;;;0.00;;
33954;SDS011;20233;50.804;7.126;2023-04-01T06:42:18;0.15;;;0.00;;
33954;SDS011;20233;50.804;7.126;2023-04-01T06:45:03;1.48;;;0.00;;
33954;SDS011;20233;50.804;7.126;2023-04-01T06:48:12;0.38;;;0.00;;
33954;SDS011;20233;50.804;7.126;2023-04-01T06:53:53;0.10;;;0.00;;
33954;SDS011;20233;50.804;7.126;2023-04-01T06:56:21;0.25;;;0.00;;
33954;SDS011;20233;50.804;7.126;2023-04-01T07:01:24;0.25;;;0.03;;
33954;SDS011;20233;50.804;7.126;2023-04-01T07:04:14;0.22;;;0.00;;
33954;SDS011;20233;50.804;7.126;2023-04-01T07:06:58;0.65;;;0.10;;
33954;SDS011;20233;50.804;7.126;2023-04-01T07:09:30;0.25;;;0.10;;
33954;SDS011;20233;50.804;7.126;2023-04-01T07:12:00;0.40;;;0.00;;
33954;SDS011;20233;50.804;7.126;2023-04-01T07:14:35;0.32;;;0.00;;
33954;SDS011;20233;50.804;7.126;2023-04-01T07:17:09;1.17;;;0.10;;
33954;SDS011;20233;50.804;7.126;2023-04-01T07:22:16;0.30;;;0.10;;
33954;SDS011;20233;50.804;7.126;2023-04-01T07:24:53;1.15;;;0.00;;
33954;SDS011;20233;50.804;7.126;2023-04-01T07:27:19;0.10;;;0.00;;
33954;SDS011;20233;50.804;7.126;2023-04-01T07:29:45;0.50;;;0.10;;
33954;SDS011;20233;50.804;7.126;2023-04-01T07:32:13;0.52;;;0.00;;
33954;SDS011;20233;50.804;7.126;2023-04-01T07:34:58;0.82;;;0.00;;
33954;SDS011;20233;50.804;7.126;2023-04-01T07:37:31;0.10;;;0.00;;
33954;SDS011;20233;50.804;7.126;2023-04-01T07:43:33;0.30;;;0.20;;
33954;SDS011;20233;50.804;7.126;2023-04-01T07:46:29;0.75;;;0.00;;
33954;SDS011;20233;50.804;7.126;2023-04-01T07:49:22;0.80;;;0.00;;
33954;SDS011;20233;50.804;7.126;2023-04-01T07:54:33;0.30;;;0.10;;
33954;SDS011;20233;50.804;7.126;2023-04-01T07:57:19;0.47;;;0.10;;
33954;SDS011;20233;50.804;7.126;2023-04-01T08:07:45;0.30;;;0.10;;
33954;SDS011;20233;50.804;7.126;2023-04-01T08:23:58;0.80;;;0.10;;
33954;SDS011;20233;50.804;7.126;2023-04-01T08:26:53;1.15;;;0.10;;
33954;SDS011;20233;50.804;7.126;2023-04-01T08:29:22;0.85;;;0.17;;
33954;SDS011;20233;50.804;7.126;2023-04-01T08:31:53;2.28;;;0.17;;
33954;SDS011;20233;50.804;7.126;2023-04-01T08:34:30;1.25;;;0.10;;
33954;SDS011;20233;50.804;7.126;2023-04-01T08:37:11;0.90;;;0.10;;
33954;SDS011;20233;50.804;7.126;2023-04-01T08:39:50;0.98;;;0.10;;
33954;SDS011;20233;50.804;7.126;2023-04-01T08:42:31;2.50;;;0.25;;
33954;SDS011;20233;50.804;7.126;2023-04-01T08:48:34;0.10;;;0.00;;
33954;SDS011;20233;50.804;7.126;2023-04-01T08:53:58;0.13;;;0.00;;
33954;SDS011;20233;50.804;7.126;2023-04-01T09:02:39;0.68;;;0.00;;
33954;SDS011;20233;50.804;7.126;2023-04-01T09:10:56;0.10;;;0.00;;
33954;SDS011;20233;50.804;7.126;2023-04-01T09:28:42;0.50;;;0.00;;
33954;SDS011;20233;50.804;7.126;2023-04-01T09:34:30;0.73;;;0.00;;
33954;SDS011;20233;50.804;7.126;2023-04-01T09:37:41;0.15;;;0.00;;
33954;SDS011;20233;50.804;7.126;2023-04-01T09:40:15;0.30;;;0.00;;
33954;SDS011;20233;50.804;7.126;2023-04-01T09:45:17;0.60;;;0.00;;
33954;SDS011;20233;50.804;7.126;2023-04-01T09:50:51;1.95;;;0.00;;
33954;SDS011;20233;50.804;7.126;2023-04-01T09:53:30;0.20;;;0.00;;
33954;SDS011;20233;50.804;7.126;2023-04-01T09:56:19;2.45;;;0.05;;
33954;SDS011;20233;50.804;7.126;2023-04-01T10:07:42;0.20;;;0.00;;
33954;SDS011;20233;50.804;7.126;2023-04-01T10:10:38;0.13;;;0.00;;
33954;SDS011;20233;50.804;7.126;2023-04-01T10:13:36;0.35;;;0.00;;
33954;SDS011;20233;50.804;7.126;2023-04-01T10:22:13;0.35;;;0.10;;
33954;SDS011;20233;50.804;7.126;2023-04-01T10:28:06;0.20;;;0.10;;
33954;SDS011;20233;50.804;7.126;2023-04-01T10:36:59;0.30;;;0.00;;
33954;SDS011;20233;50.804;7.126;2023-04-01T10:59:55;0.10;;;0.00;;
33954;SDS011;20233;50.804;7.126;2023-04-01T11:02:46;0.70;;;0.10;;
33954;SDS011;20233;50.804;7.126;2023-04-01T11:05:39;0.20;;;0.00;;
33954;SDS011;20233;50.804;7.126;2023-04-01T11:20:02;0.20;;;0.00;;
33954;SDS011;20233;50.804;7.126;2023-04-01T11:22:43;0.47;;;0.10;;
33954;SDS011;20233;50.804;7.126;2023-04-01T11:39:25;0.20;;;0.00;;
33954;SDS011;20233;50.804;7.126;2023-04-01T11:42:55;0.90;;;0.10;;
33954;SDS011;20233;50.804;7.126;2023-04-01T11:45:10;2.45;;;0.10;;
33954;SDS011;20233;50.804;7.126;2023-04-01T11:58:57;1.27;;;0.10;;
33954;SDS011;20233;50.804;7.126;2023-04-01T12:04:25;0.70;;;0.10;;
33954;SDS011;20233;50.804;7.126;2023-04-01T12:07:13;0.85;;;0.10;;
33954;SDS011;20233;50.804;7.126;2023-04-01T12:09:52;0.30;;;0.00;;
33954;SDS011;20233;50.804;7.126;2023-04-01T12:18:46;0.73;;;0.10;;
33954;SDS011;20233;50.804;7.126;2023-04-01T12:21:37;1.40;;;0.10;;
33954;SDS011;20233;50.804;7.126;2023-04-01T12:27:34;0.40;;;0.10;;
33954;SDS011;20233;50.804;7.126;2023-04-01T12:32:53;1.00;;;0.20;;
33954;SDS011;20233;50.804;7.126;2023-04-01T12:35:51;1.13;;;0.10;;
33954;SDS011;20233;50.804;7.126;2023-04-01T12:41:09;2.00;;;0.40;;
33954;SDS011;20233;50.804;7.126;2023-04-01T12:49:34;1.33;;;0.10;;
33954;SDS011;20233;50.804;7.126;2023-04-01T12:55:35;0.90;;;0.20;;
33954;SDS011;20233;50.804;7.126;2023-04-01T13:00:44;0.47;;;0.10;;
33954;SDS011;20233;50.804;7.126;2023-04-01T13:06:18;0.10;;;0.00;;
33954;SDS011;20233;50.804;7.126;2023-04-01T13:20:06;1.00;;;0.20;;
33954;SDS011;20233;50.804;7.126;2023-04-01T13:25:39;0.35;;;0.10;;
33954;SDS011;20233;50.804;7.126;2023-04-01T13:28:17;0.30;;;0.10;;
33954;SDS011;20233;50.804;7.126;2023-04-01T13:31:09;0.25;;;0.00;;
33954;SDS011;20233;50.804;7.126;2023-04-01T13:33:46;0.32;;;0.00;;
33954;SDS011;20233;50.804;7.126;2023-04-01T13:42:44;0.40;;;0.10;;
33954;SDS011;20233;50.804;7.126;2023-04-01T13:45:20;0.25;;;0.10;;
33954;SDS011;20233;50.804;7.126;2023-04-01T13:48:06;1.38;;;0.10;;
33954;SDS011;20233;50.804;7.126;2023-04-01T13:51:01;0.38;;;0.08;;
33954;SDS011;20233;50.804;7.126;2023-04-01T13:53:49;1.25;;;0.10;;
33954;SDS011;20233;50.804;7.126;2023-04-01T13:56:42;0.75;;;0.20;;
33954;SDS011;20233;50.804;7.126;2023-04-01T13:59:47;0.30;;;0.10;;
33954;SDS011;20233;50.804;7.126;2023-04-01T14:52:59;0.60;;;0.20;;
33954;SDS011;20233;50.804;7.126;2023-04-01T14:58:18;0.50;;;0.10;;
33954;SDS011;20233;50.804;7.126;2023-04-01T15:00:55;1.08;;;0.20;;
33954;SDS011;20233;50.804;7.126;2023-04-01T15:03:30;0.35;;;0.10;;
33954;SDS011;20233;50.804;7.126;2023-04-01T15:28:29;0.35;;;0.10;;
33954;SDS011;20233;50.804;7.126;2023-04-01T15:36:36;1.70;;;0.20;;
33954;SDS011;20233;50.804;7.126;2023-04-01T15:45:09;0.70;;;0.20;;
33954;SDS011;20233;50.804;7.126;2023-04-01T15:47:42;2.05;;;0.20;;
33954;SDS011;20233;50.804;7.126;2023-04-01T15:53:19;2.05;;;0.70;;
33954;SDS011;20233;50.804;7.126;2023-04-01T15:55:50;1.50;;;0.45;;
33954;SDS011;20233;50.804;7.126;2023-04-01T16:09:49;1.48;;;0.47;;
33954;SDS011;20233;50.804;7.126;2023-04-01T16:18:19;0.88;;;0.25;;
33954;SDS011;20233;50.804;7.126;2023-04-01T16:21:05;1.85;;;0.50;;
33954;SDS011;20233;50.804;7.126;2023-04-01T16:26:43;1.42;;;0.30;;
33954;SDS011;20233;50.804;7.126;2023-04-01T16:29:11;0.80;;;0.30;;
33954;SDS011;20233;50.804;7.126;2023-04-01T16:31:49;1.40;;;0.40;;
33954;SDS011;20233;50.804;7.126;2023-04-01T16:34:27;1.60;;;0.50;;
33954;SDS011;20233;50.804;7.126;2023-04-01T16:42:47;2.97;;;0.50;;
33954;SDS011;20233;50.804;7.126;2023-04-01T16:45:24;1.40;;;0.65;;
33954;SDS011;20233;50.804;7.126;2023-04-01T16:49:00;3.90;;;0.70;;
33954;SDS011;20233;50.804;7.126;2023-04-01T16:51:37;1.70;;;0.90;;
33954;SDS011;20233;50.804;7.126;2023-04-01T16:54:30;1.23;;;0.50;;
33954;SDS011;20233;50.804;7.126;2023-04-01T16:57:21;1.63;;;0.75;;
33954;SDS011;20233;50.804;7.126;2023-04-01T16:59:57;1.42;;;0.60;;
33954;SDS011;20233;50.804;7.126;2023-04-01T17:02:52;1.67;;;0.50;;
33954;SDS011;20233;50.804;7.126;2023-04-01T17:10:56;0.88;;;0.30;;
33954;SDS011;20233;50.804;7.126;2023-04-01T17:13:49;3.20;;;0.20;;
33954;SDS011;20233;50.804;7.126;2023-04-01T17:16:40;3.05;;;0.52;;
33954;SDS011;20233;50.804;7.126;2023-04-01T17:19:41;1.77;;;0.30;;
33954;SDS011;20233;50.804;7.126;2023-04-01T17:25:01;2.08;;;0.30;;
33954;SDS011;20233;50.804;7.126;2023-04-01T17:28:11;1.25;;;0.30;;
33954;SDS011;20233;50.804;7.126;2023-04-01T17:30:59;1.85;;;0.32;;
33954;SDS011;20233;50.804;7.126;2023-04-01T17:33:56;2.67;;;0.20;;
33954;SDS011;20233;50.804;7.126;2023-04-01T17:39:27;0.95;;;0.30;;
33954;SDS011;20233;50.804;7.126;2023-04-01T17:42:00;0.90;;;0.32;;
33954;SDS011;20233;50.804;7.126;2023-04-01T17:50:20;0.90;;;0.30;;
33954;SDS011;20233;50.804;7.126;2023-04-01T17:52:57;0.80;;;0.25;;
33954;SDS011;20233;50.804;7.126;2023-04-01T17:55:47;2.72;;;0.30;;
33954;SDS011;20233;50.804;7.126;2023-04-01T18:06:14;1.05;;;0.40;;
33954;SDS011;20233;50.804;7.126;2023-04-01T18:08:49;1.40;;;0.63;;
33954;SDS011;20233;50.804;7.126;2023-04-01T18:11:44;2.60;;;0.77;;
33954;SDS011;20233;50.804;7.126;2023-04-01T18:22:27;0.90;;;0.40;;
33954;SDS011;20233;50.804;7.126;2023-04-01T18:25:21;2.63;;;0.70;;
33954;SDS011;20233;50.804;7.126;2023-04-01T18:27:53;2.00;;;0.75;;
33954;SDS011;20233;50.804;7.126;2023-04-01T18:30:39;1.33;;;0.80;;
33954;SDS011;20233;50.804;7.126;2023-04-01T18:33:09;2.42;;;1.02;;
33954;SDS011;20233;50.804;7.126;2023-04-01T18:35:47;1.15;;;0.75;;
33954;SDS011;20233;50.804;7.126;2023-04-01T18:38:29;1.27;;;0.70;;
33954;SDS011;20233;50.804;7.126;2023-04-01T18:41:12;1.40;;;0.80;;
33954;SDS011;20233;50.804;7.126;2023-04-01T18:43:56;1.85;;;1.00;;
33954;SDS011;20233;50.804;7.126;2023-04-01T18:49:27;1.98;;;1.10;;
33954;SDS011;20233;50.804;7.126;2023-04-01T18:52:08;2.13;;;1.13;;
33954;SDS011;20233;50.804;7.126;2023-04-01T18:54:42;2.17;;;0.90;;
33954;SDS011;20233;50.804;7.126;2023-04-01T18:57:14;2.67;;;1.00;;
33954;SDS011;20233;50.804;7.126;2023-04-01T18:59:58;2.10;;;1.08;;
33954;SDS011;20233;50.804;7.126;2023-04-01T19:02:36;2.17;;;0.80;;
33954;SDS011;20233;50.804;7.126;2023-04-01T19:05:17;3.38;;;1.30;;
33954;SDS011;20233;50.804;7.126;2023-04-01T19:07:49;2.67;;;1.50;;
33954;SDS011;20233;50.804;7.126;2023-04-01T19:13:46;2.38;;;1.52;;
33954;SDS011;20233;50.804;7.126;2023-04-01T19:24:18;4.55;;;2.10;;
33954;SDS011;20233;50.804;7.126;2023-04-01T19:27:15;3.15;;;1.70;;
33954;SDS011;20233;50.804;7.126;2023-04-01T19:30:02;2.92;;;1.80;;
33954;SDS011;20233;50.804;7.126;2023-04-01T19:38:09;4.57;;;2.63;;
33954;SDS011;20233;50.804;7.126;2023-04-01T19:40:52;4.53;;;2.08;;
33954;SDS011;20233;50.804;7.126;2023-04-01T19:43:32;3.00;;;2.70;;
33954;SDS011;20233;50.804;7.126;2023-04-01T19:46:07;3.80;;;2.22;;
33954;SDS011;20233;50.804;7.126;2023-04-01T19:56:49;2.97;;;2.20;;
33954;SDS011;20233;50.804;7.126;2023-04-01T20:04:43;3.83;;;2.60;;
33954;SDS011;20233;50.804;7.126;2023-04-01T20:12:44;4.75;;;3.20;;
33954;SDS011;20233;50.804;7.126;2023-04-01T20:15:33;3.60;;;2.72;;
33954;SDS011;20233;50.804;7.126;2023-04-01T20:18:15;5.90;;;2.97;;
33954;SDS011;20233;50.804;7.126;2023-04-01T20:21:02;5.07;;;3.33;;
33954;SDS011;20233;50.804;7.126;2023-04-01T20:26:23;4.22;;;2.88;;
33954;SDS011;20233;50.804;7.126;2023-04-01T20:29:05;3.45;;;2.67;;
33954;SDS011;20233;50.804;7.126;2023-04-01T20:34:45;4.32;;;2.60;;
33954;SDS011;20233;50.804;7.126;2023-04-01T20:37:34;4.13;;;2.03;;
33954;SDS011;20233;50.804;7.126;2023-04-01T20:48:38;2.33;;;0.77;;
33954;SDS011;20233;50.804;7.126;2023-04-01T20:51:24;5.07;;;1.23;;
33954;SDS011;20233;50.804;7.126;2023-04-01T20:57:04;2.58;;;1.00;;
33954;SDS011;20233;50.804;7.126;2023-04-01T21:09:53;1.10;;;0.60;;
33954;SDS011;20233;50.804;7.126;2023-04-01T21:24:23;1.35;;;0.68;;
33954;SDS011;20233;50.804;7.126;2023-04-01T21:27:16;1.60;;;0.80;;
33954;SDS011;20233;50.804;7.126;2023-04-01T21:32:52;2.00;;;1.00;;
33954;SDS011;20233;50.804;7.126;2023-04-01T21:37:55;1.60;;;0.80;;
33954;SDS011;20233;50.804;7.126;2023-04-01T21:43:17;1.25;;;0.60;;
33954;SDS011;20233;50.804;7.126;2023-04-01T21:48:50;4.80;;;1.10;;
33954;SDS011;20233;50.804;7.126;2023-04-01T22:13:45;1.92;;;0.98;;
33954;SDS011;20233;50.804;7.126;2023-04-01T22:16:32;4.72;;;1.70;;
33954;SDS011;20233;50.804;7.126;2023-04-01T22:19:46;4.65;;;2.35;;
33954;SDS011;20233;50.804;7.126;2023-04-01T22:22:02;3.90;;;2.30;;
33954;SDS011;20233;50.804;7.126;2023-04-01T22:27:21;5.57;;;2.92;;
33954;SDS011;20233;50.804;7.126;2023-04-01T22:32:32;5.68;;;2.55;;
33954;SDS011;20233;50.804;7.126;2023-04-01T22:35:10;3.50;;;1.73;;
33954;SDS011;20233;50.804;7.126;2023-04-01T22:38:15;3.83;;;2.42;;
33954;SDS011;20233;50.804;7.126;2023-04-01T22:40:55;5.43;;;3.20;;
33954;SDS011;20233;50.804;7.126;2023-04-01T22:48:46;5.07;;;2.33;;
33954;SDS011;20233;50.804;7.126;2023-04-01T22:56:18;2.40;;;1.42;;
33954;SDS011;20233;50.804;7.126;2023-04-01T22:58:52;2.33;;;1.60;;
33954;SDS011;20233;50.804;7.126;2023-04-01T23:01:24;2.50;;;1.20;;
33954;SDS011;20233;50.804;7.126;2023-04-01T23:03:54;2.42;;;1.10;;
33954;SDS011;20233;50.804;7.126;2023-04-01T23:06:23;4.68;;;1.65;;
33954;SDS011;20233;50.804;7.126;2023-04-01T23:09:03;2.83;;;1.27;;
33954;SDS011;20233;50.804;7.126;2023-04-01T23:11:44;1.70;;;1.00;;
33954;SDS011;20233;50.804;7.126;2023-04-01T23:14:49;3.35;;;1.42;;
33954;SDS011;20233;50.804;7.126;2023-04-01T23:26:14;2.05;;;1.02;;
33954;SDS011;20233;50.804;7.126;2023-04-01T23:28:56;2.67;;;0.70;;
33954;SDS011;20233;50.804;7.126;2023-04-01T23:31:34;2.15;;;1.08;;
33954;SDS011;20233;50.804;7.126;2023-04-01T23:36:43;3.78;;;1.00;;
33954;SDS011;20233;50.804;7.126;2023-04-01T23:41:54;1.90;;;0.80;;
33954;SDS011;20233;50.804;7.126;2023-04-01T23:44:24;3.40;;;1.00;;
33954;SDS011;20233;50.804;7.126;2023-04-01T23:46:53;2.10;;;0.98;;
33954;SDS011;20233;50.804;7.126;2023-04-01T23:52:31;4.13;;;1.60;;
